sensor_id;sensor_type;location;lat;lon;timestamp;P1;P2;P0
76661;PMS5003;65579;45.534;6.212;2023-07-29T00:00:59;9;9;
76661;PMS5003;65579;45.534;6.212;2023-07-29T00:03:24;9;9;
76661;PMS5003;65579;45.534;6.212;2023-07-29T00:05:49;7;7;
76661;PMS5003;65579;45.534;6.212;2023-07-29T00:08:15;6;6;
76661;PMS5003;65579;45.534;6.212;2023-07-29T00:10:41;8;8;
76661;PMS5003;65579;45.534;6.212;2023-07-29T00:13:07;10;10;
76661;PMS5003;65579;45.534;6.212;2023-07-29T00:15:33;8;8;
76661;PMS5003;65579;45.534;6.212;2023-07-29T00:17:58;8;8;
76661;PMS5003;65579;45.534;6.212;2023-07-29T00:20:24;8;8;
76661;PMS5003;65579;45.534;6.212;2023-07-29T00:22:50;9;9;
76661;PMS5003;65579;45.534;6.212;2023-07-29T00:25:15;8;8;
76661;PMS5003;65579;45.534;6.212;2023-07-29T00:27:41;8;8;
76661;PMS5003;65579;45.534;6.212;2023-07-29T00:30:07;8;8;
76661;PMS5003;65579;45.534;6.212;2023-07-29T00:32:32;9;9;
76661;PMS5003;65579;45.534;6.212;2023-07-29T00:34:58;9;7;
76661;PMS5003;65579;45.534;6.212;2023-07-29T00:37:24;9;9;
76661;PMS5003;65579;45.534;6.212;2023-07-29T00:39:49;8;8;
76661;PMS5003;65579;45.534;6.212;2023-07-29T00:42:15;9;8;
76661;PMS5003;65579;45.534;6.212;2023-07-29T00:44:40;9;7;
76661;PMS5003;65579;45.534;6.212;2023-07-29T00:47:06;10;9;
76661;PMS5003;65579;45.534;6.212;2023-07-29T00:49:32;11;11;
76661;PMS5003;65579;45.534;6.212;2023-07-29T00:51:58;8;8;
76661;PMS5003;65579;45.534;6.212;2023-07-29T00:54:23;9;7;
76661;PMS5003;65579;45.534;6.212;2023-07-29T00:56:49;9;9;
76661;PMS5003;65579;45.534;6.212;2023-07-29T00:59:15;8;8;
76661;PMS5003;65579;45.534;6.212;2023-07-29T01:01:40;6;6;
76661;PMS5003;65579;45.534;6.212;2023-07-29T01:04:06;7;7;
76661;PMS5003;65579;45.534;6.212;2023-07-29T01:06:34;9;9;
76661;PMS5003;65579;45.534;6.212;2023-07-29T01:08:59;7;7;
76661;PMS5003;65579;45.534;6.212;2023-07-29T01:11:28;11;10;
76661;PMS5003;65579;45.534;6.212;2023-07-29T01:13:50;9;8;
76661;PMS5003;65579;45.534;6.212;2023-07-29T01:16:17;8;8;
76661;PMS5003;65579;45.534;6.212;2023-07-29T01:18:41;8;8;
76661;PMS5003;65579;45.534;6.212;2023-07-29T01:21:08;9;9;
76661;PMS5003;65579;45.534;6.212;2023-07-29T01:23:33;7;7;
76661;PMS5003;65579;45.534;6.212;2023-07-29T01:25:58;9;9;
76661;PMS5003;65579;45.534;6.212;2023-07-29T01:28:24;8;8;
76661;PMS5003;65579;45.534;6.212;2023-07-29T01:30:51;7;7;
76661;PMS5003;65579;45.534;6.212;2023-07-29T01:33:16;7;7;
76661;PMS5003;65579;45.534;6.212;2023-07-29T01:35:42;9;8;
76661;PMS5003;65579;45.534;6.212;2023-07-29T01:38:14;8;7;
76661;PMS5003;65579;45.534;6.212;2023-07-29T01:40:32;8;8;
76661;PMS5003;65579;45.534;6.212;2023-07-29T01:42:58;8;8;
76661;PMS5003;65579;45.534;6.212;2023-07-29T01:45:24;8;8;
76661;PMS5003;65579;45.534;6.212;2023-07-29T01:47:49;7;7;
76661;PMS5003;65579;45.534;6.212;2023-07-29T01:50:15;10;8;
76661;PMS5003;65579;45.534;6.212;2023-07-29T01:52:40;10;10;
76661;PMS5003;65579;45.534;6.212;2023-07-29T01:55:06;10;10;
76661;PMS5003;65579;45.534;6.212;2023-07-29T01:57:31;7;7;
76661;PMS5003;65579;45.534;6.212;2023-07-29T01:59:57;14;14;
76661;PMS5003;65579;45.534;6.212;2023-07-29T02:02:22;9;7;
76661;PMS5003;65579;45.534;6.212;2023-07-29T02:04:48;9;9;
76661;PMS5003;65579;45.534;6.212;2023-07-29T02:07:13;7;7;
76661;PMS5003;65579;45.534;6.212;2023-07-29T02:09:39;11;8;
76661;PMS5003;65579;45.534;6.212;2023-07-29T02:12:05;8;8;
76661;PMS5003;65579;45.534;6.212;2023-07-29T02:14:31;7;7;
76661;PMS5003;65579;45.534;6.212;2023-07-29T02:16:57;7;7;
76661;PMS5003;65579;45.534;6.212;2023-07-29T02:19:22;10;8;
76661;PMS5003;65579;45.534;6.212;2023-07-29T02:21:48;8;8;
76661;PMS5003;65579;45.534;6.212;2023-07-29T02:24:14;8;8;
76661;PMS5003;65579;45.534;6.212;2023-07-29T02:26:40;7;7;
76661;PMS5003;65579;45.534;6.212;2023-07-29T02:29:05;9;9;
76661;PMS5003;65579;45.534;6.212;2023-07-29T02:31:31;8;8;
76661;PMS5003;65579;45.534;6.212;2023-07-29T02:33:57;10;10;
76661;PMS5003;65579;45.534;6.212;2023-07-29T02:36:23;11;8;
76661;PMS5003;65579;45.534;6.212;2023-07-29T02:38:48;10;10;
76661;PMS5003;65579;45.534;6.212;2023-07-29T02:41:14;9;8;
76661;PMS5003;65579;45.534;6.212;2023-07-29T02:43:39;9;8;
76661;PMS5003;65579;45.534;6.212;2023-07-29T02:46:05;8;8;
76661;PMS5003;65579;45.534;6.212;2023-07-29T02:48:31;9;9;
76661;PMS5003;65579;45.534;6.212;2023-07-29T02:50:57;9;9;
76661;PMS5003;65579;45.534;6.212;2023-07-29T02:53:22;8;8;
76661;PMS5003;65579;45.534;6.212;2023-07-29T02:55:48;8;7;
76661;PMS5003;65579;45.534;6.212;2023-07-29T02:58:13;9;9;
76661;PMS5003;65579;45.534;6.212;2023-07-29T03:00:39;9;8;
76661;PMS5003;65579;45.534;6.212;2023-07-29T03:03:05;12;11;
76661;PMS5003;65579;45.534;6.212;2023-07-29T03:05:30;7;7;
76661;PMS5003;65579;45.534;6.212;2023-07-29T03:07:57;10;10;
76661;PMS5003;65579;45.534;6.212;2023-07-29T03:10:21;10;8;
76661;PMS5003;65579;45.534;6.212;2023-07-29T03:12:47;9;9;
76661;PMS5003;65579;45.534;6.212;2023-07-29T03:15:13;7;7;
76661;PMS5003;65579;45.534;6.212;2023-07-29T03:17:39;8;8;
76661;PMS5003;65579;45.534;6.212;2023-07-29T03:20:05;8;8;
76661;PMS5003;65579;45.534;6.212;2023-07-29T03:22:30;10;8;
76661;PMS5003;65579;45.534;6.212;2023-07-29T03:24:56;10;10;
76661;PMS5003;65579;45.534;6.212;2023-07-29T03:27:22;13;12;
76661;PMS5003;65579;45.534;6.212;2023-07-29T03:29:48;9;9;
76661;PMS5003;65579;45.534;6.212;2023-07-29T03:32:14;10;10;
76661;PMS5003;65579;45.534;6.212;2023-07-29T03:34:39;9;9;
76661;PMS5003;65579;45.534;6.212;2023-07-29T03:37:05;10;10;
76661;PMS5003;65579;45.534;6.212;2023-07-29T03:39:31;9;9;
76661;PMS5003;65579;45.534;6.212;2023-07-29T03:41:57;10;10;
76661;PMS5003;65579;45.534;6.212;2023-07-29T03:44:22;8;8;
76661;PMS5003;65579;45.534;6.212;2023-07-29T03:46:49;9;7;
76661;PMS5003;65579;45.534;6.212;2023-07-29T03:49:14;10;9;
76661;PMS5003;65579;45.534;6.212;2023-07-29T03:51:40;8;8;
76661;PMS5003;65579;45.534;6.212;2023-07-29T03:54:06;9;9;
76661;PMS5003;65579;45.534;6.212;2023-07-29T03:56:31;9;9;
76661;PMS5003;65579;45.534;6.212;2023-07-29T03:59:02;10;10;
76661;PMS5003;65579;45.534;6.212;2023-07-29T04:01:23;8;8;
76661;PMS5003;65579;45.534;6.212;2023-07-29T04:03:48;9;9;
76661;PMS5003;65579;45.534;6.212;2023-07-29T04:06:14;11;11;
76661;PMS5003;65579;45.534;6.212;2023-07-29T04:08:40;9;9;
76661;PMS5003;65579;45.534;6.212;2023-07-29T04:11:06;11;10;
76661;PMS5003;65579;45.534;6.212;2023-07-29T04:13:31;14;12;
76661;PMS5003;65579;45.534;6.212;2023-07-29T04:15:57;7;7;
76661;PMS5003;65579;45.534;6.212;2023-07-29T04:18:23;11;11;
76661;PMS5003;65579;45.534;6.212;2023-07-29T04:20:49;9;9;
76661;PMS5003;65579;45.534;6.212;2023-07-29T04:23:14;9;9;
76661;PMS5003;65579;45.534;6.212;2023-07-29T04:25:40;10;9;
76661;PMS5003;65579;45.534;6.212;2023-07-29T04:28:05;8;8;
76661;PMS5003;65579;45.534;6.212;2023-07-29T04:30:31;8;8;
76661;PMS5003;65579;45.534;6.212;2023-07-29T04:32:57;10;10;
76661;PMS5003;65579;45.534;6.212;2023-07-29T04:35:23;12;11;
76661;PMS5003;65579;45.534;6.212;2023-07-29T04:37:49;11;11;
76661;PMS5003;65579;45.534;6.212;2023-07-29T04:40:14;10;10;
76661;PMS5003;65579;45.534;6.212;2023-07-29T04:42:40;11;11;
76661;PMS5003;65579;45.534;6.212;2023-07-29T04:45:07;12;12;
76661;PMS5003;65579;45.534;6.212;2023-07-29T04:47:32;13;13;
76661;PMS5003;65579;45.534;6.212;2023-07-29T04:49:58;8;8;
76661;PMS5003;65579;45.534;6.212;2023-07-29T04:52:23;13;13;
76661;PMS5003;65579;45.534;6.212;2023-07-29T04:54:50;8;8;
76661;PMS5003;65579;45.534;6.212;2023-07-29T04:57:14;11;10;
76661;PMS5003;65579;45.534;6.212;2023-07-29T04:59:40;9;9;
76661;PMS5003;65579;45.534;6.212;2023-07-29T05:02:06;9;9;
76661;PMS5003;65579;45.534;6.212;2023-07-29T05:04:31;12;12;
76661;PMS5003;65579;45.534;6.212;2023-07-29T05:06:57;10;10;
76661;PMS5003;65579;45.534;6.212;2023-07-29T05:09:23;13;13;
76661;PMS5003;65579;45.534;6.212;2023-07-29T05:11:48;10;10;
76661;PMS5003;65579;45.534;6.212;2023-07-29T05:14:14;11;10;
76661;PMS5003;65579;45.534;6.212;2023-07-29T05:16:39;11;10;
76661;PMS5003;65579;45.534;6.212;2023-07-29T05:19:05;10;10;
76661;PMS5003;65579;45.534;6.212;2023-07-29T05:21:31;9;9;
76661;PMS5003;65579;45.534;6.212;2023-07-29T05:23:56;10;9;
76661;PMS5003;65579;45.534;6.212;2023-07-29T05:26:22;10;10;
76661;PMS5003;65579;45.534;6.212;2023-07-29T05:28:48;10;9;
76661;PMS5003;65579;45.534;6.212;2023-07-29T05:31:14;8;8;
76661;PMS5003;65579;45.534;6.212;2023-07-29T05:33:39;10;10;
76661;PMS5003;65579;45.534;6.212;2023-07-29T05:36:05;8;8;
76661;PMS5003;65579;45.534;6.212;2023-07-29T05:38:31;11;11;
76661;PMS5003;65579;45.534;6.212;2023-07-29T05:40:57;10;10;
76661;PMS5003;65579;45.534;6.212;2023-07-29T05:43:23;9;9;
76661;PMS5003;65579;45.534;6.212;2023-07-29T05:45:48;15;11;
76661;PMS5003;65579;45.534;6.212;2023-07-29T05:48:14;12;10;
76661;PMS5003;65579;45.534;6.212;2023-07-29T05:50:40;10;10;
76661;PMS5003;65579;45.534;6.212;2023-07-29T05:53:05;11;11;
76661;PMS5003;65579;45.534;6.212;2023-07-29T05:55:32;7;7;
76661;PMS5003;65579;45.534;6.212;2023-07-29T05:57:57;9;9;
76661;PMS5003;65579;45.534;6.212;2023-07-29T06:00:23;10;9;
76661;PMS5003;65579;45.534;6.212;2023-07-29T06:02:49;12;10;
76661;PMS5003;65579;45.534;6.212;2023-07-29T06:05:14;11;11;
76661;PMS5003;65579;45.534;6.212;2023-07-29T06:07:40;10;10;
76661;PMS5003;65579;45.534;6.212;2023-07-29T06:10:06;12;12;
76661;PMS5003;65579;45.534;6.212;2023-07-29T06:12:32;10;10;
76661;PMS5003;65579;45.534;6.212;2023-07-29T06:14:57;12;11;
76661;PMS5003;65579;45.534;6.212;2023-07-29T06:17:23;13;11;
76661;PMS5003;65579;45.534;6.212;2023-07-29T06:19:49;14;12;
76661;PMS5003;65579;45.534;6.212;2023-07-29T06:22:14;14;14;
76661;PMS5003;65579;45.534;6.212;2023-07-29T06:24:40;10;10;
76661;PMS5003;65579;45.534;6.212;2023-07-29T06:27:06;10;10;
76661;PMS5003;65579;45.534;6.212;2023-07-29T06:29:31;11;11;
76661;PMS5003;65579;45.534;6.212;2023-07-29T06:31:58;11;11;
76661;PMS5003;65579;45.534;6.212;2023-07-29T06:34:23;14;11;
76661;PMS5003;65579;45.534;6.212;2023-07-29T06:36:49;10;10;
76661;PMS5003;65579;45.534;6.212;2023-07-29T06:39:14;13;13;
76661;PMS5003;65579;45.534;6.212;2023-07-29T06:41:40;10;10;
76661;PMS5003;65579;45.534;6.212;2023-07-29T06:44:06;12;12;
76661;PMS5003;65579;45.534;6.212;2023-07-29T06:46:31;13;10;
76661;PMS5003;65579;45.534;6.212;2023-07-29T06:48:57;12;12;
76661;PMS5003;65579;45.534;6.212;2023-07-29T06:51:23;11;11;
76661;PMS5003;65579;45.534;6.212;2023-07-29T06:53:49;10;10;
76661;PMS5003;65579;45.534;6.212;2023-07-29T06:56:15;10;10;
76661;PMS5003;65579;45.534;6.212;2023-07-29T06:58:40;13;12;
76661;PMS5003;65579;45.534;6.212;2023-07-29T07:01:06;10;10;
76661;PMS5003;65579;45.534;6.212;2023-07-29T07:03:31;16;16;
76661;PMS5003;65579;45.534;6.212;2023-07-29T07:05:57;11;11;
76661;PMS5003;65579;45.534;6.212;2023-07-29T07:08:22;13;13;
76661;PMS5003;65579;45.534;6.212;2023-07-29T07:10:47;13;13;
76661;PMS5003;65579;45.534;6.212;2023-07-29T07:13:13;13;13;
76661;PMS5003;65579;45.534;6.212;2023-07-29T07:15:39;13;13;
76661;PMS5003;65579;45.534;6.212;2023-07-29T07:18:04;12;12;
76661;PMS5003;65579;45.534;6.212;2023-07-29T07:20:30;13;12;
76661;PMS5003;65579;45.534;6.212;2023-07-29T07:22:56;15;14;
76661;PMS5003;65579;45.534;6.212;2023-07-29T07:25:22;16;14;
76661;PMS5003;65579;45.534;6.212;2023-07-29T07:27:47;17;15;
76661;PMS5003;65579;45.534;6.212;2023-07-29T07:30:13;12;12;
76661;PMS5003;65579;45.534;6.212;2023-07-29T07:32:38;14;14;
76661;PMS5003;65579;45.534;6.212;2023-07-29T07:35:03;17;16;
76661;PMS5003;65579;45.534;6.212;2023-07-29T07:37:29;13;13;
76661;PMS5003;65579;45.534;6.212;2023-07-29T07:39:54;11;11;
76661;PMS5003;65579;45.534;6.212;2023-07-29T07:42:20;14;14;
76661;PMS5003;65579;45.534;6.212;2023-07-29T07:44:46;15;15;
76661;PMS5003;65579;45.534;6.212;2023-07-29T07:47:12;12;12;
76661;PMS5003;65579;45.534;6.212;2023-07-29T07:49:37;12;12;
76661;PMS5003;65579;45.534;6.212;2023-07-29T07:52:03;13;11;
76661;PMS5003;65579;45.534;6.212;2023-07-29T07:54:29;15;13;
76661;PMS5003;65579;45.534;6.212;2023-07-29T07:56:54;12;12;
76661;PMS5003;65579;45.534;6.212;2023-07-29T07:59:19;12;12;
76661;PMS5003;65579;45.534;6.212;2023-07-29T08:01:45;13;13;
76661;PMS5003;65579;45.534;6.212;2023-07-29T08:04:10;13;13;
76661;PMS5003;65579;45.534;6.212;2023-07-29T08:06:36;20;15;
76661;PMS5003;65579;45.534;6.212;2023-07-29T08:09:02;14;14;
76661;PMS5003;65579;45.534;6.212;2023-07-29T08:11:28;13;11;
76661;PMS5003;65579;45.534;6.212;2023-07-29T08:13:53;13;13;
76661;PMS5003;65579;45.534;6.212;2023-07-29T08:16:19;12;11;
76661;PMS5003;65579;45.534;6.212;2023-07-29T08:18:45;15;14;
76661;PMS5003;65579;45.534;6.212;2023-07-29T08:21:10;13;13;
76661;PMS5003;65579;45.534;6.212;2023-07-29T08:23:36;14;14;
76661;PMS5003;65579;45.534;6.212;2023-07-29T08:26:02;12;12;
76661;PMS5003;65579;45.534;6.212;2023-07-29T08:28:27;17;17;
76661;PMS5003;65579;45.534;6.212;2023-07-29T08:30:52;10;10;
76661;PMS5003;65579;45.534;6.212;2023-07-29T08:33:18;12;12;
76661;PMS5003;65579;45.534;6.212;2023-07-29T08:35:43;10;10;
76661;PMS5003;65579;45.534;6.212;2023-07-29T08:38:09;12;12;
76661;PMS5003;65579;45.534;6.212;2023-07-29T08:40:34;18;16;
76661;PMS5003;65579;45.534;6.212;2023-07-29T08:43:01;13;13;
76661;PMS5003;65579;45.534;6.212;2023-07-29T08:45:25;13;13;
76661;PMS5003;65579;45.534;6.212;2023-07-29T08:47:51;12;11;
76661;PMS5003;65579;45.534;6.212;2023-07-29T08:50:17;14;13;
76661;PMS5003;65579;45.534;6.212;2023-07-29T08:52:42;12;12;
76661;PMS5003;65579;45.534;6.212;2023-07-29T08:55:07;12;12;
76661;PMS5003;65579;45.534;6.212;2023-07-29T08:57:32;17;15;
76661;PMS5003;65579;45.534;6.212;2023-07-29T08:59:58;13;12;
76661;PMS5003;65579;45.534;6.212;2023-07-29T09:02:24;12;12;
76661;PMS5003;65579;45.534;6.212;2023-07-29T09:04:49;18;16;
76661;PMS5003;65579;45.534;6.212;2023-07-29T09:07:14;12;12;
76661;PMS5003;65579;45.534;6.212;2023-07-29T09:09:40;17;14;
76661;PMS5003;65579;45.534;6.212;2023-07-29T09:12:06;16;15;
76661;PMS5003;65579;45.534;6.212;2023-07-29T09:14:31;14;14;
76661;PMS5003;65579;45.534;6.212;2023-07-29T09:16:56;23;20;
76661;PMS5003;65579;45.534;6.212;2023-07-29T09:19:25;15;15;
76661;PMS5003;65579;45.534;6.212;2023-07-29T09:21:47;12;12;
76661;PMS5003;65579;45.534;6.212;2023-07-29T09:24:15;16;15;
76661;PMS5003;65579;45.534;6.212;2023-07-29T09:26:40;17;17;
76661;PMS5003;65579;45.534;6.212;2023-07-29T09:29:04;16;15;
76661;PMS5003;65579;45.534;6.212;2023-07-29T09:31:29;16;16;
76661;PMS5003;65579;45.534;6.212;2023-07-29T09:33:55;13;13;
76661;PMS5003;65579;45.534;6.212;2023-07-29T09:36:20;17;17;
76661;PMS5003;65579;45.534;6.212;2023-07-29T09:38:46;17;17;
76661;PMS5003;65579;45.534;6.212;2023-07-29T09:41:11;15;14;
76661;PMS5003;65579;45.534;6.212;2023-07-29T09:43:36;17;15;
76661;PMS5003;65579;45.534;6.212;2023-07-29T09:46:02;15;12;
76661;PMS5003;65579;45.534;6.212;2023-07-29T09:48:27;12;12;
76661;PMS5003;65579;45.534;6.212;2023-07-29T09:50:53;15;15;
76661;PMS5003;65579;45.534;6.212;2023-07-29T09:53:18;15;14;
76661;PMS5003;65579;45.534;6.212;2023-07-29T09:55:46;13;13;
76661;PMS5003;65579;45.534;6.212;2023-07-29T09:58:10;14;14;
76661;PMS5003;65579;45.534;6.212;2023-07-29T10:00:35;14;13;
76661;PMS5003;65579;45.534;6.212;2023-07-29T10:03:01;12;12;
76661;PMS5003;65579;45.534;6.212;2023-07-29T10:05:27;13;12;
76661;PMS5003;65579;45.534;6.212;2023-07-29T10:07:52;14;14;
76661;PMS5003;65579;45.534;6.212;2023-07-29T10:10:17;17;17;
76661;PMS5003;65579;45.534;6.212;2023-07-29T10:12:44;12;11;
76661;PMS5003;65579;45.534;6.212;2023-07-29T10:15:09;16;15;
76661;PMS5003;65579;45.534;6.212;2023-07-29T10:17:35;14;14;
76661;PMS5003;65579;45.534;6.212;2023-07-29T10:20:00;15;14;
76661;PMS5003;65579;45.534;6.212;2023-07-29T10:22:27;15;14;
76661;PMS5003;65579;45.534;6.212;2023-07-29T10:24:50;15;15;
76661;PMS5003;65579;45.534;6.212;2023-07-29T10:27:16;15;15;
76661;PMS5003;65579;45.534;6.212;2023-07-29T10:29:42;14;13;
76661;PMS5003;65579;45.534;6.212;2023-07-29T10:32:08;16;16;
76661;PMS5003;65579;45.534;6.212;2023-07-29T10:34:33;15;15;
76661;PMS5003;65579;45.534;6.212;2023-07-29T10:36:58;16;14;
76661;PMS5003;65579;45.534;6.212;2023-07-29T10:39:24;13;13;
76661;PMS5003;65579;45.534;6.212;2023-07-29T10:41:54;20;18;
76661;PMS5003;65579;45.534;6.212;2023-07-29T10:46:40;16;14;
76661;PMS5003;65579;45.534;6.212;2023-07-29T10:49:06;15;14;
76661;PMS5003;65579;45.534;6.212;2023-07-29T10:51:34;14;14;
76661;PMS5003;65579;45.534;6.212;2023-07-29T10:53:58;16;15;
76661;PMS5003;65579;45.534;6.212;2023-07-29T10:56:28;17;17;
76661;PMS5003;65579;45.534;6.212;2023-07-29T10:58:47;19;19;
76661;PMS5003;65579;45.534;6.212;2023-07-29T11:01:13;16;16;
76661;PMS5003;65579;45.534;6.212;2023-07-29T11:03:39;21;20;
76661;PMS5003;65579;45.534;6.212;2023-07-29T11:06:05;19;17;
76661;PMS5003;65579;45.534;6.212;2023-07-29T11:08:30;16;16;
76661;PMS5003;65579;45.534;6.212;2023-07-29T11:11:03;15;14;
76661;PMS5003;65579;45.534;6.212;2023-07-29T11:13:21;12;12;
76661;PMS5003;65579;45.534;6.212;2023-07-29T11:15:48;14;13;
76661;PMS5003;65579;45.534;6.212;2023-07-29T11:18:12;19;19;
76661;PMS5003;65579;45.534;6.212;2023-07-29T11:20:38;17;16;
76661;PMS5003;65579;45.534;6.212;2023-07-29T11:23:04;13;13;
76661;PMS5003;65579;45.534;6.212;2023-07-29T11:25:30;16;16;
76661;PMS5003;65579;45.534;6.212;2023-07-29T11:27:56;18;16;
76661;PMS5003;65579;45.534;6.212;2023-07-29T11:30:20;17;15;
76661;PMS5003;65579;45.534;6.212;2023-07-29T11:32:46;16;14;
76661;PMS5003;65579;45.534;6.212;2023-07-29T11:35:11;19;19;
76661;PMS5003;65579;45.534;6.212;2023-07-29T11:37:36;16;16;
76661;PMS5003;65579;45.534;6.212;2023-07-29T11:40:02;17;17;
76661;PMS5003;65579;45.534;6.212;2023-07-29T11:42:28;21;17;
76661;PMS5003;65579;45.534;6.212;2023-07-29T11:44:53;14;14;
76661;PMS5003;65579;45.534;6.212;2023-07-29T11:47:19;14;14;
76661;PMS5003;65579;45.534;6.212;2023-07-29T11:49:45;15;15;
76661;PMS5003;65579;45.534;6.212;2023-07-29T11:52:10;15;14;
76661;PMS5003;65579;45.534;6.212;2023-07-29T11:54:34;14;13;
76661;PMS5003;65579;45.534;6.212;2023-07-29T11:57:00;14;14;
76661;PMS5003;65579;45.534;6.212;2023-07-29T11:59:26;23;22;
76661;PMS5003;65579;45.534;6.212;2023-07-29T12:01:51;15;14;
76661;PMS5003;65579;45.534;6.212;2023-07-29T12:04:17;16;15;
76661;PMS5003;65579;45.534;6.212;2023-07-29T12:06:42;14;14;
76661;PMS5003;65579;45.534;6.212;2023-07-29T12:09:07;14;13;
76661;PMS5003;65579;45.534;6.212;2023-07-29T12:11:33;11;11;
76661;PMS5003;65579;45.534;6.212;2023-07-29T12:13:59;14;14;
76661;PMS5003;65579;45.534;6.212;2023-07-29T12:16:25;12;11;
76661;PMS5003;65579;45.534;6.212;2023-07-29T12:18:50;14;14;
76661;PMS5003;65579;45.534;6.212;2023-07-29T12:21:16;15;15;
76661;PMS5003;65579;45.534;6.212;2023-07-29T12:23:41;11;11;
76661;PMS5003;65579;45.534;6.212;2023-07-29T12:26:07;12;12;
76661;PMS5003;65579;45.534;6.212;2023-07-29T12:28:33;10;10;
76661;PMS5003;65579;45.534;6.212;2023-07-29T12:30:58;17;15;
76661;PMS5003;65579;45.534;6.212;2023-07-29T12:35:50;15;14;
76661;PMS5003;65579;45.534;6.212;2023-07-29T12:40:39;14;13;
76661;PMS5003;65579;45.534;6.212;2023-07-29T12:43:05;12;12;
76661;PMS5003;65579;45.534;6.212;2023-07-29T12:45:35;10;10;
76661;PMS5003;65579;45.534;6.212;2023-07-29T12:47:56;13;11;
76661;PMS5003;65579;45.534;6.212;2023-07-29T12:50:22;13;13;
76661;PMS5003;65579;45.534;6.212;2023-07-29T12:52:47;14;14;
76661;PMS5003;65579;45.534;6.212;2023-07-29T12:55:13;14;14;
76661;PMS5003;65579;45.534;6.212;2023-07-29T12:57:39;10;10;
76661;PMS5003;65579;45.534;6.212;2023-07-29T13:00:05;11;11;
76661;PMS5003;65579;45.534;6.212;2023-07-29T13:02:30;12;12;
76661;PMS5003;65579;45.534;6.212;2023-07-29T13:04:55;12;11;
76661;PMS5003;65579;45.534;6.212;2023-07-29T13:07:21;12;12;
76661;PMS5003;65579;45.534;6.212;2023-07-29T13:09:46;15;13;
76661;PMS5003;65579;45.534;6.212;2023-07-29T13:12:12;12;11;
76661;PMS5003;65579;45.534;6.212;2023-07-29T13:14:38;11;11;
76661;PMS5003;65579;45.534;6.212;2023-07-29T13:17:04;13;13;
76661;PMS5003;65579;45.534;6.212;2023-07-29T13:19:28;14;14;
76661;PMS5003;65579;45.534;6.212;2023-07-29T13:21:54;12;12;
76661;PMS5003;65579;45.534;6.212;2023-07-29T13:24:20;12;12;
76661;PMS5003;65579;45.534;6.212;2023-07-29T13:26:45;17;16;
76661;PMS5003;65579;45.534;6.212;2023-07-29T13:29:10;18;18;
76661;PMS5003;65579;45.534;6.212;2023-07-29T13:31:36;13;13;
76661;PMS5003;65579;45.534;6.212;2023-07-29T13:34:01;15;12;
76661;PMS5003;65579;45.534;6.212;2023-07-29T13:36:27;11;11;
76661;PMS5003;65579;45.534;6.212;2023-07-29T13:38:53;11;11;
76661;PMS5003;65579;45.534;6.212;2023-07-29T13:41:18;13;11;
76661;PMS5003;65579;45.534;6.212;2023-07-29T13:43:44;11;11;
76661;PMS5003;65579;45.534;6.212;2023-07-29T13:46:10;13;11;
76661;PMS5003;65579;45.534;6.212;2023-07-29T13:48:35;19;17;
76661;PMS5003;65579;45.534;6.212;2023-07-29T13:51:01;12;12;
76661;PMS5003;65579;45.534;6.212;2023-07-29T13:53:26;12;12;
76661;PMS5003;65579;45.534;6.212;2023-07-29T13:55:52;12;12;
76661;PMS5003;65579;45.534;6.212;2023-07-29T13:58:17;13;11;
76661;PMS5003;65579;45.534;6.212;2023-07-29T14:00:43;11;9;
76661;PMS5003;65579;45.534;6.212;2023-07-29T14:03:09;12;12;
76661;PMS5003;65579;45.534;6.212;2023-07-29T14:05:34;10;10;
76661;PMS5003;65579;45.534;6.212;2023-07-29T14:08:00;11;11;
76661;PMS5003;65579;45.534;6.212;2023-07-29T14:10:26;12;12;
76661;PMS5003;65579;45.534;6.212;2023-07-29T14:12:51;13;13;
76661;PMS5003;65579;45.534;6.212;2023-07-29T14:15:16;11;11;
76661;PMS5003;65579;45.534;6.212;2023-07-29T14:17:42;13;13;
76661;PMS5003;65579;45.534;6.212;2023-07-29T14:20:08;16;15;
76661;PMS5003;65579;45.534;6.212;2023-07-29T14:22:33;11;11;
76661;PMS5003;65579;45.534;6.212;2023-07-29T14:24:58;11;11;
76661;PMS5003;65579;45.534;6.212;2023-07-29T14:27:24;10;10;
76661;PMS5003;65579;45.534;6.212;2023-07-29T14:29:49;12;12;
76661;PMS5003;65579;45.534;6.212;2023-07-29T14:32:15;12;11;
76661;PMS5003;65579;45.534;6.212;2023-07-29T14:34:40;11;10;
76661;PMS5003;65579;45.534;6.212;2023-07-29T14:37:06;10;10;
76661;PMS5003;65579;45.534;6.212;2023-07-29T14:39:32;12;12;
76661;PMS5003;65579;45.534;6.212;2023-07-29T14:41:57;12;11;
76661;PMS5003;65579;45.534;6.212;2023-07-29T14:44:23;12;11;
76661;PMS5003;65579;45.534;6.212;2023-07-29T14:46:48;11;10;
76661;PMS5003;65579;45.534;6.212;2023-07-29T14:49:14;10;10;
76661;PMS5003;65579;45.534;6.212;2023-07-29T14:51:40;8;8;
76661;PMS5003;65579;45.534;6.212;2023-07-29T14:54:05;10;10;
76661;PMS5003;65579;45.534;6.212;2023-07-29T14:56:31;13;13;
76661;PMS5003;65579;45.534;6.212;2023-07-29T14:58:56;9;9;
76661;PMS5003;65579;45.534;6.212;2023-07-29T15:01:22;11;10;
76661;PMS5003;65579;45.534;6.212;2023-07-29T15:03:48;11;11;
76661;PMS5003;65579;45.534;6.212;2023-07-29T15:06:13;13;13;
76661;PMS5003;65579;45.534;6.212;2023-07-29T15:08:39;12;12;
76661;PMS5003;65579;45.534;6.212;2023-07-29T15:11:04;13;11;
76661;PMS5003;65579;45.534;6.212;2023-07-29T15:13:29;13;13;
76661;PMS5003;65579;45.534;6.212;2023-07-29T15:15:55;12;12;
76661;PMS5003;65579;45.534;6.212;2023-07-29T15:18:21;10;10;
76661;PMS5003;65579;45.534;6.212;2023-07-29T15:20:47;11;11;
76661;PMS5003;65579;45.534;6.212;2023-07-29T15:23:12;11;11;
76661;PMS5003;65579;45.534;6.212;2023-07-29T15:25:38;13;13;
76661;PMS5003;65579;45.534;6.212;2023-07-29T15:28:03;16;13;
76661;PMS5003;65579;45.534;6.212;2023-07-29T15:30:29;11;10;
76661;PMS5003;65579;45.534;6.212;2023-07-29T15:32:54;9;9;
76661;PMS5003;65579;45.534;6.212;2023-07-29T15:35:21;13;13;
76661;PMS5003;65579;45.534;6.212;2023-07-29T15:37:45;11;11;
76661;PMS5003;65579;45.534;6.212;2023-07-29T15:40:11;12;11;
76661;PMS5003;65579;45.534;6.212;2023-07-29T15:42:36;12;12;
76661;PMS5003;65579;45.534;6.212;2023-07-29T15:45:02;12;12;
76661;PMS5003;65579;45.534;6.212;2023-07-29T15:47:28;10;10;
76661;PMS5003;65579;45.534;6.212;2023-07-29T15:49:53;14;13;
76661;PMS5003;65579;45.534;6.212;2023-07-29T15:52:19;10;10;
76661;PMS5003;65579;45.534;6.212;2023-07-29T15:54:44;11;9;
76661;PMS5003;65579;45.534;6.212;2023-07-29T15:57:10;9;9;
76661;PMS5003;65579;45.534;6.212;2023-07-29T15:59:35;10;10;
76661;PMS5003;65579;45.534;6.212;2023-07-29T16:02:01;11;11;
76661;PMS5003;65579;45.534;6.212;2023-07-29T16:04:26;11;11;
76661;PMS5003;65579;45.534;6.212;2023-07-29T16:06:52;10;10;
76661;PMS5003;65579;45.534;6.212;2023-07-29T16:09:19;9;9;
76661;PMS5003;65579;45.534;6.212;2023-07-29T16:11:43;8;8;
76661;PMS5003;65579;45.534;6.212;2023-07-29T16:14:09;9;9;
76661;PMS5003;65579;45.534;6.212;2023-07-29T16:16:34;11;11;
76661;PMS5003;65579;45.534;6.212;2023-07-29T16:18:59;10;9;
76661;PMS5003;65579;45.534;6.212;2023-07-29T16:21:25;8;8;